sensor_id;sensor_type;location;lat;lon;timestamp;P1;durP1;ratioP1;P2;durP2;ratioP2
61709;SDS011;47633;51.494;5.386;2022-07-30T00:02:00;6.03;;;2.10;;
61709;SDS011;47633;51.494;5.386;2022-07-30T00:04:27;6.13;;;2.10;;
61709;SDS011;47633;51.494;5.386;2022-07-30T00:06:52;6.00;;;1.92;;
61709;SDS011;47633;51.494;5.386;2022-07-30T00:09:17;5.70;;;1.90;;
61709;SDS011;47633;51.494;5.386;2022-07-30T00:11:45;5.10;;;2.25;;
61709;SDS011;47633;51.494;5.386;2022-07-30T00:14:10;4.20;;;2.07;;
61709;SDS011;47633;51.494;5.386;2022-07-30T00:16:36;5.75;;;2.28;;
61709;SDS011;47633;51.494;5.386;2022-07-30T00:19:02;5.18;;;2.30;;
61709;SDS011;47633;51.494;5.386;2022-07-30T00:21:27;7.00;;;1.95;;
61709;SDS011;47633;51.494;5.386;2022-07-30T00:23:53;4.90;;;2.22;;
61709;SDS011;47633;51.494;5.386;2022-07-30T00:26:18;4.70;;;2.00;;
61709;SDS011;47633;51.494;5.386;2022-07-30T00:28:43;4.22;;;2.05;;
61709;SDS011;47633;51.494;5.386;2022-07-30T00:31:09;4.40;;;2.00;;
61709;SDS011;47633;51.494;5.386;2022-07-30T00:33:34;6.00;;;2.17;;
61709;SDS011;47633;51.494;5.386;2022-07-30T00:35:59;4.87;;;2.13;;
61709;SDS011;47633;51.494;5.386;2022-07-30T00:38:25;4.67;;;2.23;;
61709;SDS011;47633;51.494;5.386;2022-07-30T00:40:50;3.72;;;1.85;;
61709;SDS011;47633;51.494;5.386;2022-07-30T00:43:16;6.78;;;2.40;;
61709;SDS011;47633;51.494;5.386;2022-07-30T00:45:42;6.45;;;2.25;;
61709;SDS011;47633;51.494;5.386;2022-07-30T00:48:09;6.20;;;2.30;;
61709;SDS011;47633;51.494;5.386;2022-07-30T00:50:35;4.55;;;2.13;;
61709;SDS011;47633;51.494;5.386;2022-07-30T00:53:01;5.43;;;2.45;;
61709;SDS011;47633;51.494;5.386;2022-07-30T00:55:26;4.78;;;2.38;;
61709;SDS011;47633;51.494;5.386;2022-07-30T00:57:51;5.82;;;2.58;;
61709;SDS011;47633;51.494;5.386;2022-07-30T01:00:16;6.82;;;2.65;;
61709;SDS011;47633;51.494;5.386;2022-07-30T01:02:42;5.35;;;2.33;;
61709;SDS011;47633;51.494;5.386;2022-07-30T01:05:10;5.22;;;2.78;;
61709;SDS011;47633;51.494;5.386;2022-07-30T01:07:36;5.28;;;2.35;;
61709;SDS011;47633;51.494;5.386;2022-07-30T01:10:02;5.13;;;2.30;;
61709;SDS011;47633;51.494;5.386;2022-07-30T01:12:28;6.55;;;2.30;;
61709;SDS011;47633;51.494;5.386;2022-07-30T01:14:56;5.70;;;2.45;;
61709;SDS011;47633;51.494;5.386;2022-07-30T01:17:22;5.15;;;2.30;;
61709;SDS011;47633;51.494;5.386;2022-07-30T01:19:47;4.80;;;2.33;;
61709;SDS011;47633;51.494;5.386;2022-07-30T01:27:22;7.72;;;2.92;;
61709;SDS011;47633;51.494;5.386;2022-07-30T01:29:49;7.25;;;2.55;;
61709;SDS011;47633;51.494;5.386;2022-07-30T01:32:28;4.72;;;2.50;;
61709;SDS011;47633;51.494;5.386;2022-07-30T01:34:56;5.82;;;2.67;;
61709;SDS011;47633;51.494;5.386;2022-07-30T01:37:24;6.47;;;2.50;;
61709;SDS011;47633;51.494;5.386;2022-07-30T01:39:52;5.57;;;2.47;;
61709;SDS011;47633;51.494;5.386;2022-07-30T01:42:18;7.35;;;2.60;;
61709;SDS011;47633;51.494;5.386;2022-07-30T01:44:44;4.60;;;2.40;;
61709;SDS011;47633;51.494;5.386;2022-07-30T01:47:12;4.68;;;2.90;;
61709;SDS011;47633;51.494;5.386;2022-07-30T01:49:39;5.63;;;2.78;;
61709;SDS011;47633;51.494;5.386;2022-07-30T01:52:06;5.38;;;2.63;;
61709;SDS011;47633;51.494;5.386;2022-07-30T01:54:33;5.63;;;2.67;;
61709;SDS011;47633;51.494;5.386;2022-07-30T01:57:01;5.57;;;2.55;;
61709;SDS011;47633;51.494;5.386;2022-07-30T01:59:27;4.93;;;2.60;;
61709;SDS011;47633;51.494;5.386;2022-07-30T02:01:58;6.30;;;2.97;;
61709;SDS011;47633;51.494;5.386;2022-07-30T02:04:24;4.60;;;2.65;;
61709;SDS011;47633;51.494;5.386;2022-07-30T02:06:53;4.63;;;2.60;;
61709;SDS011;47633;51.494;5.386;2022-07-30T02:09:27;5.45;;;2.95;;
61709;SDS011;47633;51.494;5.386;2022-07-30T02:12:01;5.20;;;2.88;;
61709;SDS011;47633;51.494;5.386;2022-07-30T02:15:02;5.20;;;2.78;;
61709;SDS011;47633;51.494;5.386;2022-07-30T02:17:48;7.00;;;3.17;;
61709;SDS011;47633;51.494;5.386;2022-07-30T02:22:48;4.90;;;2.72;;
61709;SDS011;47633;51.494;5.386;2022-07-30T02:25:16;5.45;;;2.90;;
61709;SDS011;47633;51.494;5.386;2022-07-30T02:27:49;4.88;;;2.97;;
61709;SDS011;47633;51.494;5.386;2022-07-30T02:30:18;4.85;;;3.05;;
61709;SDS011;47633;51.494;5.386;2022-07-30T02:32:49;5.30;;;2.95;;
61709;SDS011;47633;51.494;5.386;2022-07-30T02:35:19;6.28;;;3.20;;
61709;SDS011;47633;51.494;5.386;2022-07-30T02:37:46;4.72;;;2.83;;
61709;SDS011;47633;51.494;5.386;2022-07-30T02:40:16;4.75;;;2.78;;
61709;SDS011;47633;51.494;5.386;2022-07-30T02:42:45;5.55;;;3.13;;
61709;SDS011;47633;51.494;5.386;2022-07-30T02:45:14;7.00;;;3.33;;
61709;SDS011;47633;51.494;5.386;2022-07-30T02:47:42;5.38;;;2.85;;
61709;SDS011;47633;51.494;5.386;2022-07-30T02:50:09;5.20;;;3.00;;
61709;SDS011;47633;51.494;5.386;2022-07-30T02:52:35;5.80;;;2.92;;
61709;SDS011;47633;51.494;5.386;2022-07-30T02:55:02;5.35;;;3.10;;
61709;SDS011;47633;51.494;5.386;2022-07-30T02:57:29;6.50;;;3.40;;
61709;SDS011;47633;51.494;5.386;2022-07-30T02:59:56;5.07;;;2.78;;
61709;SDS011;47633;51.494;5.386;2022-07-30T03:02:22;5.03;;;2.90;;
61709;SDS011;47633;51.494;5.386;2022-07-30T03:04:51;5.72;;;3.03;;
61709;SDS011;47633;51.494;5.386;2022-07-30T03:07:18;6.18;;;3.10;;
61709;SDS011;47633;51.494;5.386;2022-07-30T03:09:44;7.03;;;3.50;;
61709;SDS011;47633;51.494;5.386;2022-07-30T03:12:11;6.68;;;3.55;;
61709;SDS011;47633;51.494;5.386;2022-07-30T03:14:38;6.43;;;3.22;;
61709;SDS011;47633;51.494;5.386;2022-07-30T03:17:04;5.85;;;3.20;;
61709;SDS011;47633;51.494;5.386;2022-07-30T03:19:31;5.40;;;3.25;;
61709;SDS011;47633;51.494;5.386;2022-07-30T03:22:00;6.55;;;3.60;;
61709;SDS011;47633;51.494;5.386;2022-07-30T03:24:28;5.70;;;3.60;;
61709;SDS011;47633;51.494;5.386;2022-07-30T03:26:56;5.18;;;3.05;;
61709;SDS011;47633;51.494;5.386;2022-07-30T03:29:24;7.53;;;3.47;;
61709;SDS011;47633;51.494;5.386;2022-07-30T03:31:51;5.95;;;3.17;;
61709;SDS011;47633;51.494;5.386;2022-07-30T03:34:17;6.90;;;3.15;;
61709;SDS011;47633;51.494;5.386;2022-07-30T03:36:45;6.07;;;3.33;;
61709;SDS011;47633;51.494;5.386;2022-07-30T03:39:13;6.40;;;3.38;;
61709;SDS011;47633;51.494;5.386;2022-07-30T03:41:40;5.25;;;3.22;;
61709;SDS011;47633;51.494;5.386;2022-07-30T03:44:06;7.57;;;3.22;;
61709;SDS011;47633;51.494;5.386;2022-07-30T03:46:35;6.10;;;3.25;;
61709;SDS011;47633;51.494;5.386;2022-07-30T03:49:04;6.13;;;3.00;;
61709;SDS011;47633;51.494;5.386;2022-07-30T03:51:30;5.97;;;3.15;;
61709;SDS011;47633;51.494;5.386;2022-07-30T03:53:57;5.43;;;3.28;;
61709;SDS011;47633;51.494;5.386;2022-07-30T03:56:22;6.07;;;3.28;;
61709;SDS011;47633;51.494;5.386;2022-07-30T03:58:48;5.47;;;3.42;;
61709;SDS011;47633;51.494;5.386;2022-07-30T04:01:13;7.45;;;3.15;;
61709;SDS011;47633;51.494;5.386;2022-07-30T04:03:38;5.80;;;3.10;;
61709;SDS011;47633;51.494;5.386;2022-07-30T04:06:04;5.13;;;3.05;;
61709;SDS011;47633;51.494;5.386;2022-07-30T04:08:29;5.28;;;3.10;;
61709;SDS011;47633;51.494;5.386;2022-07-30T04:10:55;5.75;;;2.97;;
61709;SDS011;47633;51.494;5.386;2022-07-30T04:13:21;6.43;;;3.10;;
61709;SDS011;47633;51.494;5.386;2022-07-30T04:16:04;5.22;;;3.20;;
61709;SDS011;47633;51.494;5.386;2022-07-30T04:18:36;5.55;;;2.95;;
61709;SDS011;47633;51.494;5.386;2022-07-30T04:21:06;5.55;;;2.90;;
61709;SDS011;47633;51.494;5.386;2022-07-30T04:23:34;8.80;;;3.10;;
61709;SDS011;47633;51.494;5.386;2022-07-30T04:26:00;7.07;;;3.22;;
61709;SDS011;47633;51.494;5.386;2022-07-30T04:28:26;6.55;;;3.42;;
61709;SDS011;47633;51.494;5.386;2022-07-30T04:30:55;5.10;;;2.92;;
61709;SDS011;47633;51.494;5.386;2022-07-30T04:33:21;6.03;;;2.70;;
61709;SDS011;47633;51.494;5.386;2022-07-30T04:35:46;4.15;;;2.53;;
61709;SDS011;47633;51.494;5.386;2022-07-30T04:38:11;5.15;;;2.78;;
61709;SDS011;47633;51.494;5.386;2022-07-30T04:40:38;5.40;;;2.88;;
61709;SDS011;47633;51.494;5.386;2022-07-30T04:43:04;5.43;;;3.00;;
61709;SDS011;47633;51.494;5.386;2022-07-30T04:45:29;5.45;;;3.15;;
61709;SDS011;47633;51.494;5.386;2022-07-30T04:47:54;4.83;;;2.80;;
61709;SDS011;47633;51.494;5.386;2022-07-30T04:50:23;5.55;;;3.10;;
61709;SDS011;47633;51.494;5.386;2022-07-30T04:52:50;4.70;;;2.85;;
61709;SDS011;47633;51.494;5.386;2022-07-30T04:55:17;5.47;;;2.90;;
61709;SDS011;47633;51.494;5.386;2022-07-30T04:57:44;4.95;;;2.80;;
61709;SDS011;47633;51.494;5.386;2022-07-30T05:00:13;5.72;;;2.78;;
61709;SDS011;47633;51.494;5.386;2022-07-30T05:02:39;5.93;;;2.70;;
61709;SDS011;47633;51.494;5.386;2022-07-30T05:05:06;4.60;;;2.70;;
61709;SDS011;47633;51.494;5.386;2022-07-30T05:07:32;5.50;;;2.85;;
61709;SDS011;47633;51.494;5.386;2022-07-30T05:10:02;5.45;;;3.03;;
61709;SDS011;47633;51.494;5.386;2022-07-30T05:12:34;5.32;;;3.30;;
61709;SDS011;47633;51.494;5.386;2022-07-30T05:15:03;4.88;;;2.67;;
61709;SDS011;47633;51.494;5.386;2022-07-30T05:17:30;4.50;;;2.63;;
61709;SDS011;47633;51.494;5.386;2022-07-30T05:19:55;4.82;;;2.85;;
61709;SDS011;47633;51.494;5.386;2022-07-30T05:22:20;5.93;;;3.20;;
61709;SDS011;47633;51.494;5.386;2022-07-30T05:24:46;5.28;;;3.20;;
61709;SDS011;47633;51.494;5.386;2022-07-30T05:27:11;5.27;;;2.87;;
61709;SDS011;47633;51.494;5.386;2022-07-30T05:29:36;5.00;;;2.80;;
61709;SDS011;47633;51.494;5.386;2022-07-30T05:32:01;5.00;;;2.87;;
61709;SDS011;47633;51.494;5.386;2022-07-30T05:34:27;4.95;;;2.65;;
61709;SDS011;47633;51.494;5.386;2022-07-30T05:36:52;5.15;;;2.90;;
61709;SDS011;47633;51.494;5.386;2022-07-30T05:39:17;4.83;;;2.80;;
61709;SDS011;47633;51.494;5.386;2022-07-30T05:41:45;5.47;;;2.70;;
61709;SDS011;47633;51.494;5.386;2022-07-30T05:44:11;6.50;;;2.97;;
61709;SDS011;47633;51.494;5.386;2022-07-30T05:46:36;6.32;;;2.75;;
61709;SDS011;47633;51.494;5.386;2022-07-30T05:49:01;6.13;;;2.95;;
61709;SDS011;47633;51.494;5.386;2022-07-30T05:51:27;5.50;;;2.90;;
61709;SDS011;47633;51.494;5.386;2022-07-30T05:53:53;5.22;;;2.95;;
61709;SDS011;47633;51.494;5.386;2022-07-30T05:56:21;8.88;;;5.70;;
61709;SDS011;47633;51.494;5.386;2022-07-30T05:58:46;9.07;;;4.70;;
61709;SDS011;47633;51.494;5.386;2022-07-30T06:01:12;8.43;;;5.57;;
61709;SDS011;47633;51.494;5.386;2022-07-30T06:03:37;7.65;;;4.63;;
61709;SDS011;47633;51.494;5.386;2022-07-30T06:06:03;7.78;;;5.18;;
61709;SDS011;47633;51.494;5.386;2022-07-30T06:08:29;9.20;;;5.03;;
61709;SDS011;47633;51.494;5.386;2022-07-30T06:10:54;10.35;;;5.28;;
61709;SDS011;47633;51.494;5.386;2022-07-30T06:13:19;11.70;;;5.17;;
61709;SDS011;47633;51.494;5.386;2022-07-30T06:15:44;9.47;;;4.57;;
61709;SDS011;47633;51.494;5.386;2022-07-30T06:18:10;7.00;;;4.40;;
61709;SDS011;47633;51.494;5.386;2022-07-30T06:20:38;6.30;;;3.95;;
61709;SDS011;47633;51.494;5.386;2022-07-30T06:23:03;9.20;;;4.25;;
61709;SDS011;47633;51.494;5.386;2022-07-30T06:25:28;8.07;;;4.77;;
61709;SDS011;47633;51.494;5.386;2022-07-30T06:27:54;10.18;;;3.90;;
61709;SDS011;47633;51.494;5.386;2022-07-30T06:30:19;5.70;;;2.75;;
61709;SDS011;47633;51.494;5.386;2022-07-30T06:32:44;4.43;;;2.50;;
61709;SDS011;47633;51.494;5.386;2022-07-30T06:35:15;4.57;;;2.40;;
61709;SDS011;47633;51.494;5.386;2022-07-30T06:37:40;5.78;;;2.40;;
61709;SDS011;47633;51.494;5.386;2022-07-30T06:40:07;5.05;;;2.55;;
61709;SDS011;47633;51.494;5.386;2022-07-30T06:42:32;5.25;;;2.42;;
61709;SDS011;47633;51.494;5.386;2022-07-30T06:44:58;5.28;;;2.30;;
61709;SDS011;47633;51.494;5.386;2022-07-30T06:47:23;5.47;;;2.10;;
61709;SDS011;47633;51.494;5.386;2022-07-30T06:49:53;4.22;;;2.10;;
61709;SDS011;47633;51.494;5.386;2022-07-30T06:52:19;5.20;;;2.17;;
61709;SDS011;47633;51.494;5.386;2022-07-30T06:54:44;5.40;;;1.90;;
61709;SDS011;47633;51.494;5.386;2022-07-30T06:57:11;4.65;;;1.80;;
61709;SDS011;47633;51.494;5.386;2022-07-30T06:59:36;4.30;;;1.90;;
61709;SDS011;47633;51.494;5.386;2022-07-30T07:02:02;4.90;;;1.70;;
61709;SDS011;47633;51.494;5.386;2022-07-30T07:04:30;4.10;;;1.83;;
61709;SDS011;47633;51.494;5.386;2022-07-30T07:06:58;4.22;;;1.98;;
61709;SDS011;47633;51.494;5.386;2022-07-30T07:09:26;3.67;;;1.85;;
61709;SDS011;47633;51.494;5.386;2022-07-30T07:11:52;5.10;;;1.90;;
61709;SDS011;47633;51.494;5.386;2022-07-30T07:14:20;7.60;;;2.45;;
61709;SDS011;47633;51.494;5.386;2022-07-30T07:16:46;5.23;;;2.20;;
61709;SDS011;47633;51.494;5.386;2022-07-30T07:19:12;5.70;;;2.00;;
61709;SDS011;47633;51.494;5.386;2022-07-30T07:21:37;6.45;;;2.10;;
61709;SDS011;47633;51.494;5.386;2022-07-30T07:24:06;4.80;;;1.90;;
61709;SDS011;47633;51.494;5.386;2022-07-30T07:26:38;4.32;;;1.80;;
61709;SDS011;47633;51.494;5.386;2022-07-30T07:29:04;4.55;;;1.83;;
61709;SDS011;47633;51.494;5.386;2022-07-30T07:31:29;6.20;;;2.33;;
61709;SDS011;47633;51.494;5.386;2022-07-30T07:33:54;5.50;;;1.83;;
61709;SDS011;47633;51.494;5.386;2022-07-30T07:36:20;4.70;;;1.92;;
61709;SDS011;47633;51.494;5.386;2022-07-30T07:38:45;3.05;;;1.60;;
61709;SDS011;47633;51.494;5.386;2022-07-30T07:41:11;4.05;;;1.90;;
61709;SDS011;47633;51.494;5.386;2022-07-30T07:43:39;5.00;;;1.80;;
61709;SDS011;47633;51.494;5.386;2022-07-30T07:46:04;3.42;;;1.65;;
61709;SDS011;47633;51.494;5.386;2022-07-30T07:48:30;4.20;;;1.80;;
61709;SDS011;47633;51.494;5.386;2022-07-30T07:50:56;3.95;;;1.83;;
61709;SDS011;47633;51.494;5.386;2022-07-30T07:53:21;4.07;;;1.70;;
61709;SDS011;47633;51.494;5.386;2022-07-30T07:55:46;3.67;;;1.57;;
61709;SDS011;47633;51.494;5.386;2022-07-30T07:58:12;4.17;;;1.73;;
61709;SDS011;47633;51.494;5.386;2022-07-30T08:00:38;4.80;;;1.70;;
61709;SDS011;47633;51.494;5.386;2022-07-30T08:03:04;4.68;;;1.70;;
61709;SDS011;47633;51.494;5.386;2022-07-30T08:05:29;8.35;;;1.92;;
61709;SDS011;47633;51.494;5.386;2022-07-30T08:07:55;4.70;;;1.88;;
61709;SDS011;47633;51.494;5.386;2022-07-30T08:10:20;5.55;;;1.75;;
61709;SDS011;47633;51.494;5.386;2022-07-30T08:12:46;4.60;;;2.00;;
61709;SDS011;47633;51.494;5.386;2022-07-30T08:15:14;5.32;;;1.73;;
61709;SDS011;47633;51.494;5.386;2022-07-30T08:17:40;4.30;;;1.67;;
61709;SDS011;47633;51.494;5.386;2022-07-30T08:20:06;6.18;;;2.00;;
61709;SDS011;47633;51.494;5.386;2022-07-30T08:22:35;4.85;;;1.73;;
61709;SDS011;47633;51.494;5.386;2022-07-30T08:25:01;4.40;;;1.67;;
61709;SDS011;47633;51.494;5.386;2022-07-30T08:27:27;4.78;;;1.90;;
61709;SDS011;47633;51.494;5.386;2022-07-30T08:29:52;4.28;;;1.85;;
61709;SDS011;47633;51.494;5.386;2022-07-30T08:32:17;3.73;;;1.63;;
61709;SDS011;47633;51.494;5.386;2022-07-30T08:34:43;5.35;;;1.70;;
61709;SDS011;47633;51.494;5.386;2022-07-30T08:37:08;3.90;;;1.70;;
61709;SDS011;47633;51.494;5.386;2022-07-30T08:39:34;4.72;;;1.60;;
61709;SDS011;47633;51.494;5.386;2022-07-30T08:42:02;3.63;;;1.48;;
61709;SDS011;47633;51.494;5.386;2022-07-30T08:44:28;4.38;;;1.58;;
61709;SDS011;47633;51.494;5.386;2022-07-30T08:46:58;3.25;;;1.40;;
61709;SDS011;47633;51.494;5.386;2022-07-30T08:49:27;5.95;;;1.70;;
61709;SDS011;47633;51.494;5.386;2022-07-30T08:51:56;5.60;;;1.52;;
61709;SDS011;47633;51.494;5.386;2022-07-30T08:54:22;4.47;;;1.92;;
61709;SDS011;47633;51.494;5.386;2022-07-30T08:56:47;3.42;;;1.70;;
61709;SDS011;47633;51.494;5.386;2022-07-30T08:59:16;4.80;;;2.03;;
61709;SDS011;47633;51.494;5.386;2022-07-30T09:01:42;3.85;;;1.50;;
61709;SDS011;47633;51.494;5.386;2022-07-30T09:04:11;2.58;;;1.23;;
61709;SDS011;47633;51.494;5.386;2022-07-30T09:06:41;4.05;;;1.63;;
61709;SDS011;47633;51.494;5.386;2022-07-30T09:09:06;5.30;;;1.70;;
61709;SDS011;47633;51.494;5.386;2022-07-30T09:11:32;3.38;;;1.40;;
61709;SDS011;47633;51.494;5.386;2022-07-30T09:14:06;3.58;;;1.60;;
61709;SDS011;47633;51.494;5.386;2022-07-30T09:16:36;3.22;;;1.65;;
61709;SDS011;47633;51.494;5.386;2022-07-30T09:19:15;4.68;;;1.80;;
61709;SDS011;47633;51.494;5.386;2022-07-30T09:21:42;5.32;;;1.80;;
61709;SDS011;47633;51.494;5.386;2022-07-30T09:24:18;5.40;;;1.88;;
61709;SDS011;47633;51.494;5.386;2022-07-30T09:29:26;4.80;;;1.60;;
61709;SDS011;47633;51.494;5.386;2022-07-30T09:34:26;3.67;;;1.50;;
61709;SDS011;47633;51.494;5.386;2022-07-30T09:36:54;3.42;;;1.70;;
61709;SDS011;47633;51.494;5.386;2022-07-30T09:39:31;3.33;;;1.48;;
61709;SDS011;47633;51.494;5.386;2022-07-30T09:42:03;3.97;;;1.50;;
61709;SDS011;47633;51.494;5.386;2022-07-30T09:44:40;7.65;;;1.70;;
61709;SDS011;47633;51.494;5.386;2022-07-30T09:47:06;3.97;;;1.40;;
61709;SDS011;47633;51.494;5.386;2022-07-30T09:49:31;3.00;;;1.40;;
61709;SDS011;47633;51.494;5.386;2022-07-30T09:51:57;4.65;;;1.50;;
61709;SDS011;47633;51.494;5.386;2022-07-30T09:54:44;4.47;;;1.65;;
61709;SDS011;47633;51.494;5.386;2022-07-30T09:57:11;2.60;;;1.30;;
61709;SDS011;47633;51.494;5.386;2022-07-30T09:59:36;3.07;;;1.20;;
61709;SDS011;47633;51.494;5.386;2022-07-30T10:02:02;3.30;;;1.20;;
61709;SDS011;47633;51.494;5.386;2022-07-30T10:04:31;5.60;;;1.30;;
61709;SDS011;47633;51.494;5.386;2022-07-30T10:06:57;4.50;;;1.33;;
61709;SDS011;47633;51.494;5.386;2022-07-30T10:09:28;3.65;;;1.30;;
61709;SDS011;47633;51.494;5.386;2022-07-30T10:11:54;3.63;;;1.30;;
61709;SDS011;47633;51.494;5.386;2022-07-30T10:14:21;3.17;;;1.30;;
61709;SDS011;47633;51.494;5.386;2022-07-30T10:16:52;3.95;;;1.48;;
61709;SDS011;47633;51.494;5.386;2022-07-30T10:19:18;3.42;;;1.55;;
61709;SDS011;47633;51.494;5.386;2022-07-30T10:21:44;4.38;;;1.35;;
61709;SDS011;47633;51.494;5.386;2022-07-30T10:24:10;5.60;;;1.25;;
61709;SDS011;47633;51.494;5.386;2022-07-30T10:26:36;4.28;;;1.52;;
61709;SDS011;47633;51.494;5.386;2022-07-30T10:29:02;2.72;;;1.30;;
61709;SDS011;47633;51.494;5.386;2022-07-30T10:31:28;4.40;;;1.55;;
61709;SDS011;47633;51.494;5.386;2022-07-30T10:33:54;3.17;;;1.40;;
61709;SDS011;47633;51.494;5.386;2022-07-30T10:36:20;3.22;;;1.27;;
61709;SDS011;47633;51.494;5.386;2022-07-30T10:38:47;4.18;;;1.35;;
61709;SDS011;47633;51.494;5.386;2022-07-30T10:41:17;3.15;;;1.40;;
61709;SDS011;47633;51.494;5.386;2022-07-30T10:49:15;3.50;;;1.40;;
61709;SDS011;47633;51.494;5.386;2022-07-30T10:51:42;6.40;;;1.45;;
61709;SDS011;47633;51.494;5.386;2022-07-30T10:57:15;6.60;;;1.92;;
61709;SDS011;47633;51.494;5.386;2022-07-30T11:02:19;4.93;;;1.80;;
61709;SDS011;47633;51.494;5.386;2022-07-30T11:04:49;3.85;;;1.70;;
61709;SDS011;47633;51.494;5.386;2022-07-30T11:09:45;3.33;;;1.60;;
61709;SDS011;47633;51.494;5.386;2022-07-30T11:12:11;5.07;;;1.58;;
61709;SDS011;47633;51.494;5.386;2022-07-30T11:17:22;4.03;;;1.38;;
61709;SDS011;47633;51.494;5.386;2022-07-30T11:22:45;5.88;;;1.80;;
61709;SDS011;47633;51.494;5.386;2022-07-30T11:25:37;4.95;;;1.65;;
61709;SDS011;47633;51.494;5.386;2022-07-30T11:28:03;4.15;;;1.50;;
61709;SDS011;47633;51.494;5.386;2022-07-30T11:30:32;4.55;;;1.30;;
61709;SDS011;47633;51.494;5.386;2022-07-30T11:41:08;4.63;;;1.52;;
61709;SDS011;47633;51.494;5.386;2022-07-30T11:43:23;3.85;;;1.73;;
61709;SDS011;47633;51.494;5.386;2022-07-30T11:46:09;4.95;;;1.40;;
61709;SDS011;47633;51.494;5.386;2022-07-30T11:48:41;4.07;;;1.40;;
61709;SDS011;47633;51.494;5.386;2022-07-30T11:51:21;4.55;;;1.55;;
61709;SDS011;47633;51.494;5.386;2022-07-30T11:54:06;4.05;;;1.25;;
61709;SDS011;47633;51.494;5.386;2022-07-30T11:56:34;3.47;;;1.35;;
61709;SDS011;47633;51.494;5.386;2022-07-30T11:59:04;3.40;;;1.30;;
61709;SDS011;47633;51.494;5.386;2022-07-30T12:01:31;4.05;;;1.63;;
61709;SDS011;47633;51.494;5.386;2022-07-30T12:04:01;3.33;;;1.40;;
61709;SDS011;47633;51.494;5.386;2022-07-30T12:06:27;3.42;;;1.38;;
61709;SDS011;47633;51.494;5.386;2022-07-30T12:08:56;3.92;;;1.35;;
61709;SDS011;47633;51.494;5.386;2022-07-30T12:11:22;3.63;;;1.55;;
61709;SDS011;47633;51.494;5.386;2022-07-30T12:13:54;5.15;;;1.70;;
61709;SDS011;47633;51.494;5.386;2022-07-30T12:16:24;2.67;;;1.27;;
61709;SDS011;47633;51.494;5.386;2022-07-30T12:18:50;2.70;;;1.38;;
61709;SDS011;47633;51.494;5.386;2022-07-30T12:21:16;4.22;;;1.50;;
61709;SDS011;47633;51.494;5.386;2022-07-30T12:23:52;3.67;;;1.50;;
61709;SDS011;47633;51.494;5.386;2022-07-30T12:26:25;3.67;;;1.48;;
61709;SDS011;47633;51.494;5.386;2022-07-30T12:28:54;3.97;;;1.52;;
61709;SDS011;47633;51.494;5.386;2022-07-30T12:31:20;4.65;;;1.70;;
61709;SDS011;47633;51.494;5.386;2022-07-30T12:33:46;3.60;;;1.50;;
61709;SDS011;47633;51.494;5.386;2022-07-30T12:36:22;3.65;;;1.58;;
61709;SDS011;47633;51.494;5.386;2022-07-30T12:38:52;2.85;;;1.50;;
61709;SDS011;47633;51.494;5.386;2022-07-30T12:41:18;3.15;;;1.50;;
61709;SDS011;47633;51.494;5.386;2022-07-30T12:43:45;3.00;;;1.27;;
61709;SDS011;47633;51.494;5.386;2022-07-30T12:46:23;3.75;;;1.67;;
61709;SDS011;47633;51.494;5.386;2022-07-30T12:51:19;4.53;;;1.77;;
61709;SDS011;47633;51.494;5.386;2022-07-30T12:53:46;4.55;;;1.85;;
61709;SDS011;47633;51.494;5.386;2022-07-30T12:56:19;3.78;;;1.80;;
61709;SDS011;47633;51.494;5.386;2022-07-30T12:58:50;5.75;;;2.08;;
61709;SDS011;47633;51.494;5.386;2022-07-30T13:01:17;4.13;;;1.88;;
61709;SDS011;47633;51.494;5.386;2022-07-30T13:03:43;4.95;;;1.80;;
61709;SDS011;47633;51.494;5.386;2022-07-30T13:06:20;5.35;;;1.92;;
61709;SDS011;47633;51.494;5.386;2022-07-30T13:08:55;5.53;;;2.17;;
61709;SDS011;47633;51.494;5.386;2022-07-30T13:11:23;5.10;;;1.95;;
61709;SDS011;47633;51.494;5.386;2022-07-30T13:14:01;3.47;;;1.73;;
61709;SDS011;47633;51.494;5.386;2022-07-30T13:16:29;3.95;;;1.60;;
61709;SDS011;47633;51.494;5.386;2022-07-30T13:18:55;3.80;;;1.63;;
61709;SDS011;47633;51.494;5.386;2022-07-30T13:21:20;4.17;;;1.83;;
61709;SDS011;47633;51.494;5.386;2022-07-30T13:23:48;5.90;;;1.95;;
61709;SDS011;47633;51.494;5.386;2022-07-30T13:26:13;5.95;;;1.80;;
61709;SDS011;47633;51.494;5.386;2022-07-30T13:28:39;4.05;;;1.70;;
61709;SDS011;47633;51.494;5.386;2022-07-30T13:31:04;4.72;;;1.70;;
61709;SDS011;47633;51.494;5.386;2022-07-30T13:33:31;4.78;;;1.75;;
61709;SDS011;47633;51.494;5.386;2022-07-30T13:35:59;3.47;;;1.58;;
61709;SDS011;47633;51.494;5.386;2022-07-30T13:38:27;3.15;;;1.60;;
61709;SDS011;47633;51.494;5.386;2022-07-30T13:40:53;3.47;;;1.73;;
61709;SDS011;47633;51.494;5.386;2022-07-30T13:43:19;3.42;;;1.73;;
61709;SDS011;47633;51.494;5.386;2022-07-30T13:45:45;3.90;;;1.70;;
61709;SDS011;47633;51.494;5.386;2022-07-30T13:48:11;3.42;;;1.60;;
61709;SDS011;47633;51.494;5.386;2022-07-30T13:50:36;3.53;;;1.60;;
61709;SDS011;47633;51.494;5.386;2022-07-30T13:53:02;3.70;;;1.60;;
61709;SDS011;47633;51.494;5.386;2022-07-30T13:55:27;3.08;;;1.55;;
61709;SDS011;47633;51.494;5.386;2022-07-30T13:57:53;3.08;;;1.58;;
61709;SDS011;47633;51.494;5.386;2022-07-30T14:00:18;2.80;;;1.52;;
61709;SDS011;47633;51.494;5.386;2022-07-30T14:02:43;2.92;;;1.48;;
61709;SDS011;47633;51.494;5.386;2022-07-30T14:05:09;3.03;;;1.70;;
61709;SDS011;47633;51.494;5.386;2022-07-30T14:07:35;5.70;;;1.70;;
61709;SDS011;47633;51.494;5.386;2022-07-30T14:10:04;4.55;;;1.70;;
61709;SDS011;47633;51.494;5.386;2022-07-30T14:12:31;4.00;;;1.60;;
61709;SDS011;47633;51.494;5.386;2022-07-30T14:14:56;4.32;;;1.60;;
61709;SDS011;47633;51.494;5.386;2022-07-30T14:17:22;3.60;;;1.50;;
61709;SDS011;47633;51.494;5.386;2022-07-30T14:19:47;5.63;;;1.70;;
61709;SDS011;47633;51.494;5.386;2022-07-30T14:22:18;5.60;;;1.83;;
61709;SDS011;47633;51.494;5.386;2022-07-30T14:24:52;5.93;;;2.08;;
61709;SDS011;47633;51.494;5.386;2022-07-30T14:27:17;6.07;;;1.90;;
61709;SDS011;47633;51.494;5.386;2022-07-30T14:29:44;3.88;;;1.45;;
61709;SDS011;47633;51.494;5.386;2022-07-30T14:32:10;3.35;;;1.40;;
61709;SDS011;47633;51.494;5.386;2022-07-30T14:34:41;3.13;;;1.40;;
61709;SDS011;47633;51.494;5.386;2022-07-30T14:37:07;3.63;;;1.52;;
61709;SDS011;47633;51.494;5.386;2022-07-30T14:39:32;5.68;;;1.52;;
61709;SDS011;47633;51.494;5.386;2022-07-30T14:42:00;3.03;;;1.50;;
61709;SDS011;47633;51.494;5.386;2022-07-30T14:44:28;4.32;;;1.50;;
61709;SDS011;47633;51.494;5.386;2022-07-30T14:46:53;3.20;;;1.33;;
61709;SDS011;47633;51.494;5.386;2022-07-30T14:49:19;4.15;;;1.60;;
61709;SDS011;47633;51.494;5.386;2022-07-30T14:51:45;3.38;;;1.50;;
61709;SDS011;47633;51.494;5.386;2022-07-30T14:54:11;3.75;;;1.58;;
61709;SDS011;47633;51.494;5.386;2022-07-30T14:56:39;4.75;;;1.77;;
61709;SDS011;47633;51.494;5.386;2022-07-30T14:59:04;2.35;;;1.40;;
61709;SDS011;47633;51.494;5.386;2022-07-30T15:01:30;3.90;;;1.40;;
61709;SDS011;47633;51.494;5.386;2022-07-30T15:03:55;2.50;;;1.33;;
61709;SDS011;47633;51.494;5.386;2022-07-30T15:06:20;3.30;;;1.58;;
61709;SDS011;47633;51.494;5.386;2022-07-30T15:08:46;2.97;;;1.40;;
61709;SDS011;47633;51.494;5.386;2022-07-30T15:11:13;3.45;;;1.45;;
61709;SDS011;47633;51.494;5.386;2022-07-30T15:13:39;3.20;;;1.38;;
61709;SDS011;47633;51.494;5.386;2022-07-30T15:16:04;3.33;;;1.40;;
61709;SDS011;47633;51.494;5.386;2022-07-30T15:18:30;4.65;;;1.60;;
61709;SDS011;47633;51.494;5.386;2022-07-30T15:20:58;4.03;;;1.60;;
61709;SDS011;47633;51.494;5.386;2022-07-30T15:23:27;3.33;;;1.48;;
61709;SDS011;47633;51.494;5.386;2022-07-30T15:25:52;3.28;;;1.50;;
61709;SDS011;47633;51.494;5.386;2022-07-30T15:28:20;4.45;;;1.73;;
61709;SDS011;47633;51.494;5.386;2022-07-30T15:30:46;3.60;;;1.65;;
61709;SDS011;47633;51.494;5.386;2022-07-30T15:33:11;4.60;;;1.50;;